createdAt,value
2022-10-26T00:01:43.860Z,83.39
2022-10-26T00:04:13.277Z,83.36
2022-10-26T00:06:42.870Z,84.04
2022-10-26T00:09:12.585Z,82.91
2022-10-26T00:11:42.504Z,82.87
2022-10-26T00:14:11.845Z,82.28
2022-10-26T00:16:42.972Z,82.10
2022-10-26T00:19:12.448Z,80.97
2022-10-26T00:21:42.196Z,82.21
2022-10-26T00:24:13.086Z,83.34
2022-10-26T00:26:42.683Z,82.90
2022-10-26T00:29:13.750Z,82.67
2022-10-26T00:31:44.827Z,83.37
2022-10-26T00:34:14.244Z,83.59
2022-10-26T00:36:43.997Z,82.04
2022-10-26T00:39:15.173Z,82.93
2022-10-26T00:41:44.845Z,84.21
2022-10-26T00:44:50.860Z,83.77
2022-10-26T00:47:35.879Z,83.40
2022-10-26T00:50:09.883Z,84.19
2022-10-26T00:52:40.323Z,83.30
2022-10-26T00:55:10.852Z,83.33
2022-10-26T00:57:41.478Z,84.29
2022-10-26T01:00:11.662Z,83.55
2022-10-26T01:02:43.279Z,83.23
2022-10-26T01:05:15.052Z,82.82
2022-10-26T01:07:47.271Z,82.75
2022-10-26T01:10:17.197Z,82.11
2022-10-26T01:12:47.288Z,81.78
2022-10-26T01:15:17.375Z,82.71
2022-10-26T01:18:03.023Z,82.19
2022-10-26T01:21:18.388Z,82.39
2022-10-26T01:24:12.680Z,82.56
2022-10-26T01:26:55.641Z,82.62
2022-10-26T01:29:51.228Z,82.18
2022-10-26T01:32:28.621Z,81.51
2022-10-26T01:35:07.649Z,81.43
2022-10-26T01:37:40.553Z,81.44
2022-10-26T01:40:17.919Z,81.43
2022-10-26T01:42:50.654Z,81.71
2022-10-26T01:45:21.222Z,82.01
2022-10-26T01:47:53.823Z,81.44
2022-10-26T01:50:24.840Z,81.67
2022-10-26T01:52:55.323Z,81.35
2022-10-26T01:55:48.426Z,80.72
2022-10-26T01:58:38.661Z,80.13
2022-10-26T02:01:20.991Z,81.79
2022-10-26T02:04:00.591Z,81.89
2022-10-26T02:06:38.534Z,81.51
2022-10-26T02:09:19.988Z,81.25
2022-10-26T02:11:53.073Z,80.94
2022-10-26T02:14:31.118Z,80.60
2022-10-26T02:17:08.119Z,81.19
2022-10-26T02:19:44.148Z,81.77
2022-10-26T02:22:19.041Z,81.32
2022-10-26T02:24:50.807Z,81.88
2022-10-26T02:27:24.215Z,82.73
2022-10-26T02:29:55.900Z,81.97
2022-10-26T02:33:50.498Z,81.81
2022-10-26T02:36:27.377Z,83.25
2022-10-26T02:38:59.187Z,82.74
2022-10-26T02:41:30.848Z,82.64
2022-10-26T02:44:05.770Z,83.16
2022-10-26T02:46:35.861Z,82.76
2022-10-26T02:49:05.877Z,82.90
2022-10-26T02:51:41.668Z,82.21
2022-10-26T02:54:19.536Z,82.65
2022-10-26T02:56:55.314Z,83.24
2022-10-26T02:59:27.798Z,82.76
2022-10-26T03:01:58.932Z,82.54
2022-10-26T03:04:32.538Z,83.63
2022-10-26T03:07:03.536Z,82.82
2022-10-26T03:09:33.332Z,82.60
2022-10-26T03:12:02.700Z,83.04
2022-10-26T03:14:32.711Z,82.54
2022-10-26T03:17:02.027Z,82.63
2022-10-26T03:19:31.710Z,83.02
2022-10-26T03:22:02.647Z,83.67
2022-10-26T03:24:32.169Z,82.75
2022-10-26T03:27:02.474Z,82.57
2022-10-26T03:29:32.374Z,82.12
2022-10-26T03:32:01.844Z,81.98
2022-10-26T03:34:31.471Z,81.98
2022-10-26T03:37:02.926Z,81.38
2022-10-26T03:39:32.743Z,81.05
2022-10-26T03:42:02.168Z,81.66
2022-10-26T03:44:31.731Z,81.80
2022-10-26T03:47:01.076Z,82.87
2022-10-26T03:49:30.696Z,83.06
2022-10-26T03:52:00.143Z,82.27
2022-10-26T03:54:31.306Z,82.82
2022-10-26T03:57:00.710Z,81.63
2022-10-26T03:59:30.207Z,82.01
2022-10-26T04:01:59.623Z,82.61
2022-10-26T04:04:29.609Z,81.63
2022-10-26T04:06:59.092Z,82.94
2022-10-26T04:09:30.311Z,82.72
2022-10-26T04:11:59.726Z,82.25
2022-10-26T04:14:29.398Z,83.15
2022-10-26T04:16:58.721Z,81.63
2022-10-26T04:19:28.255Z,81.22
2022-10-26T04:21:57.677Z,81.63
2022-10-26T04:24:27.258Z,81.83
2022-10-26T04:26:58.075Z,80.71
2022-10-26T04:29:27.788Z,82.01
2022-10-26T04:31:57.203Z,81.39
2022-10-26T04:34:26.816Z,81.55
2022-10-26T04:36:57.189Z,82.07
2022-10-26T04:39:26.998Z,81.44
2022-10-26T04:41:57.830Z,81.33
2022-10-26T04:44:27.482Z,81.83
2022-10-26T04:46:56.967Z,81.55
2022-10-26T04:49:26.515Z,81.33
2022-10-26T04:51:55.895Z,81.62
2022-10-26T04:54:25.566Z,81.48
2022-10-26T04:56:56.297Z,80.14
2022-10-26T04:59:26.018Z,80.71
2022-10-26T05:01:55.595Z,81.26
2022-10-26T05:04:25.219Z,81.75
2022-10-26T05:06:54.853Z,80.33
2022-10-26T05:09:24.550Z,80.78
2022-10-26T05:11:53.977Z,80.33
2022-10-26T05:14:25.003Z,79.42
2022-10-26T05:16:56.010Z,79.28
2022-10-26T05:19:25.627Z,79.78
2022-10-26T05:21:55.020Z,80.46
2022-10-26T05:24:24.577Z,80.41
2022-10-26T05:26:53.931Z,79.95
2022-10-26T05:29:25.183Z,79.82
2022-10-26T05:31:54.539Z,80.29
2022-10-26T05:34:24.454Z,80.25
2022-10-26T05:36:55.671Z,79.96
2022-10-26T05:39:25.302Z,79.88
2022-10-26T05:41:54.759Z,80.68
2022-10-26T05:44:25.895Z,79.40
2022-10-26T05:46:56.273Z,79.73
2022-10-26T05:49:26.274Z,79.89
2022-10-26T05:51:55.827Z,79.80
2022-10-26T05:54:25.573Z,79.03
2022-10-26T05:56:55.425Z,79.40
2022-10-26T05:59:27.428Z,79.16
2022-10-26T06:02:07.540Z,78.99
2022-10-26T06:04:40.463Z,77.57
2022-10-26T06:07:14.977Z,78.17
2022-10-26T06:09:45.615Z,79.11
2022-10-26T06:12:19.349Z,78.32
2022-10-26T06:14:51.735Z,77.87
2022-10-26T06:17:35.357Z,77.86
2022-10-26T06:20:22.549Z,78.08
2022-10-26T06:23:07.319Z,78.87
2022-10-26T06:25:45.867Z,79.17
2022-10-26T06:28:27.088Z,78.65
2022-10-26T06:30:59.362Z,78.15
2022-10-26T06:33:30.825Z,78.19
2022-10-26T06:36:13.503Z,77.29
2022-10-26T06:38:45.563Z,77.72
2022-10-26T06:41:19.079Z,76.92
2022-10-26T06:43:49.733Z,77.01
2022-10-26T06:46:31.668Z,77.11
2022-10-26T06:49:10.155Z,76.32
2022-10-26T06:51:44.774Z,76.17
2022-10-26T06:54:19.347Z,75.42
2022-10-26T06:56:49.815Z,75.55
2022-10-26T06:59:31.237Z,75.32
2022-10-26T07:02:05.599Z,75.22
2022-10-26T07:04:36.185Z,75.20
2022-10-26T07:07:05.836Z,74.37
2022-10-26T07:09:35.214Z,75.09
2022-10-26T07:12:05.005Z,73.75
2022-10-26T07:14:34.559Z,72.82
2022-10-26T07:17:05.754Z,72.85
2022-10-26T07:19:35.311Z,73.21
2022-10-26T07:22:05.355Z,73.16
2022-10-26T07:24:34.745Z,73.16
2022-10-26T07:27:04.331Z,72.47
2022-10-26T07:29:35.326Z,72.32
2022-10-26T07:32:06.920Z,71.46
2022-10-26T07:34:36.515Z,71.38
2022-10-26T07:37:06.161Z,72.48
2022-10-26T07:39:35.985Z,70.70
2022-10-26T07:42:06.266Z,70.54
2022-10-26T07:44:35.766Z,71.21
2022-10-26T07:47:06.901Z,70.52
2022-10-26T07:49:36.348Z,70.55
2022-10-26T07:52:06.100Z,70.25
2022-10-26T07:54:35.427Z,69.94
2022-10-26T07:59:39.819Z,69.91
2022-10-26T08:02:12.158Z,69.56
2022-10-26T08:04:41.686Z,68.54
2022-10-26T08:07:11.390Z,68.98
2022-10-26T08:09:40.780Z,69.34
2022-10-26T08:12:10.768Z,68.79
2022-10-26T08:14:40.361Z,68.82
2022-10-26T08:17:11.371Z,68.03
2022-10-26T08:19:40.797Z,67.90
2022-10-26T08:22:10.470Z,67.08
2022-10-26T08:24:39.809Z,67.30
2022-10-26T08:27:09.434Z,69.10
2022-10-26T08:29:38.833Z,67.73
2022-10-26T08:32:10.174Z,65.50
2022-10-26T08:34:39.563Z,66.71
2022-10-26T08:37:09.469Z,66.65
2022-10-26T08:39:38.838Z,64.77
2022-10-26T08:42:15.259Z,64.70
2022-10-26T08:44:48.038Z,62.88
2022-10-26T08:47:23.360Z,61.20
2022-10-26T08:49:59.461Z,61.88
2022-10-26T08:52:40.067Z,61.96
2022-10-26T08:55:17.946Z,61.99
2022-10-26T08:57:49.525Z,61.81
2022-10-26T09:00:22.687Z,64.13
2022-10-26T09:02:54.271Z,62.36
2022-10-26T09:05:34.682Z,61.78
2022-10-26T09:08:13.757Z,60.69
2022-10-26T09:10:52.400Z,62.48
2022-10-26T09:13:36.092Z,63.35
2022-10-26T09:16:16.173Z,63.29
2022-10-26T09:18:57.702Z,62.85
2022-10-26T09:21:38.975Z,61.96
2022-10-26T09:24:15.391Z,62.69
2022-10-26T09:29:43.069Z,61.56
2022-10-26T09:32:18.460Z,61.23
2022-10-26T09:34:53.767Z,59.24
2022-10-26T09:37:27.057Z,57.83
2022-10-26T09:40:08.792Z,57.79
2022-10-26T09:42:45.443Z,58.91
2022-10-26T09:45:20.680Z,59.18
2022-10-26T09:47:53.301Z,55.74
2022-10-26T09:50:30.440Z,54.03
2022-10-26T09:52:59.825Z,54.87
2022-10-26T09:55:30.642Z,53.40
2022-10-26T09:58:03.434Z,52.74
2022-10-26T10:03:21.848Z,50.37
2022-10-26T10:05:53.221Z,51.23
2022-10-26T10:08:25.334Z,48.13
2022-10-26T10:10:58.247Z,48.74
2022-10-26T10:13:30.772Z,51.78
2022-10-26T10:16:09.478Z,54.00
2022-10-26T10:18:40.124Z,55.53
2022-10-26T10:21:12.382Z,53.47
2022-10-26T10:23:52.293Z,48.20
2022-10-26T10:26:22.260Z,46.15
2022-10-26T10:28:59.951Z,40.03
2022-10-26T10:31:31.818Z,40.92
2022-10-26T10:34:01.822Z,38.04
2022-10-26T10:36:32.962Z,39.67
2022-10-26T10:39:03.300Z,38.61
2022-10-26T10:41:36.687Z,34.47
2022-10-26T10:44:10.143Z,39.56
2022-10-26T10:46:39.985Z,40.56
2022-10-26T10:49:20.151Z,38.31
2022-10-26T10:51:51.729Z,33.77
2022-10-26T10:54:28.959Z,41.20
2022-10-26T10:57:09.100Z,44.12
2022-10-26T11:00:02.848Z,39.22
2022-10-26T11:02:59.271Z,38.52
2022-10-26T11:05:44.579Z,34.69
2022-10-26T11:08:21.932Z,40.47
2022-10-26T11:10:56.086Z,43.05
2022-10-26T11:13:30.522Z,40.99
2022-10-26T11:16:04.383Z,40.63
2022-10-26T11:18:38.405Z,44.17
2022-10-26T11:21:16.413Z,46.01
2022-10-26T11:23:50.941Z,47.36
2022-10-26T11:26:28.806Z,49.31
2022-10-26T11:29:03.625Z,53.22
2022-10-26T11:31:39.034Z,49.54
2022-10-26T11:34:20.859Z,51.08
2022-10-26T11:36:58.607Z,49.97
2022-10-26T11:39:38.142Z,51.53
2022-10-26T11:42:19.699Z,51.48
2022-10-26T11:44:54.651Z,53.15
2022-10-26T11:47:35.012Z,53.82
2022-10-26T11:50:16.268Z,53.14
2022-10-26T11:52:51.412Z,53.47
2022-10-26T11:55:24.293Z,53.73
2022-10-26T11:57:55.634Z,50.55
2022-10-26T12:00:25.631Z,50.03
2022-10-26T12:02:58.946Z,53.77
2022-10-26T12:05:37.387Z,55.05
2022-10-26T12:08:12.935Z,54.99
2022-10-26T12:10:50.540Z,48.75
2022-10-26T12:13:28.667Z,48.67
2022-10-26T12:16:04.521Z,48.50
2022-10-26T12:18:59.738Z,49.87
2022-10-26T12:21:31.782Z,51.82
2022-10-26T12:24:02.631Z,51.65
2022-10-26T12:26:53.872Z,50.50
2022-10-26T12:29:46.122Z,51.78
2022-10-26T12:32:49.963Z,53.55
2022-10-26T12:35:40.494Z,53.31
2022-10-26T12:38:49.767Z,48.85
2022-10-26T12:41:29.621Z,36.87
2022-10-26T12:44:33.785Z,30.07
2022-10-26T12:47:03.767Z,29.62
2022-10-26T12:50:03.147Z,32.55
2022-10-26T12:52:43.740Z,31.03
2022-10-26T12:55:46.534Z,32.62
2022-10-26T12:58:39.864Z,33.12
2022-10-26T13:01:52.316Z,37.46
2022-10-26T13:04:59.656Z,37.37
2022-10-26T13:07:35.424Z,40.01
2022-10-26T13:10:08.287Z,35.13
2022-10-26T13:12:49.817Z,30.14
2022-10-26T13:15:25.891Z,29.30
2022-10-26T13:18:03.904Z,28.96
2022-10-26T13:20:35.912Z,33.58
2022-10-26T13:23:17.080Z,40.09
2022-10-26T13:26:04.809Z,41.81
2022-10-26T13:28:44.795Z,44.91
2022-10-26T13:31:42.671Z,45.89
2022-10-26T13:34:18.685Z,46.68
2022-10-26T13:36:52.441Z,49.22
2022-10-26T13:39:25.769Z,50.43
2022-10-26T13:41:58.558Z,51.01
2022-10-26T13:44:34.459Z,51.72
2022-10-26T13:47:09.265Z,52.40
2022-10-26T13:49:42.641Z,53.40
2022-10-26T13:52:16.900Z,53.33
2022-10-26T13:54:52.720Z,54.66
2022-10-26T13:57:25.209Z,54.50
2022-10-26T13:59:57.799Z,54.79
2022-10-26T14:02:30.812Z,55.00
2022-10-26T14:05:06.303Z,54.34
2022-10-26T14:07:38.359Z,55.08
2022-10-26T14:10:08.583Z,56.41
2022-10-26T14:12:39.652Z,54.96
2022-10-26T14:15:11.606Z,56.44
2022-10-26T14:17:41.397Z,55.91
2022-10-26T14:20:21.736Z,56.74
2022-10-26T14:22:52.181Z,56.75
2022-10-26T14:25:35.817Z,58.18
2022-10-26T14:28:24.182Z,57.11
2022-10-26T14:30:54.251Z,56.72
2022-10-26T14:33:29.455Z,57.84
2022-10-26T14:36:00.231Z,59.38
2022-10-26T14:38:34.166Z,57.49
2022-10-26T14:41:04.110Z,59.72
2022-10-26T14:43:33.782Z,59.80
2022-10-26T14:46:03.522Z,58.93
2022-10-26T14:48:36.190Z,58.70
2022-10-26T14:51:12.064Z,58.39
2022-10-26T14:53:42.695Z,58.84
2022-10-26T14:56:41.165Z,59.21
2022-10-26T14:59:21.584Z,58.64
2022-10-26T15:01:56.549Z,58.89
2022-10-26T15:04:32.195Z,59.15
2022-10-26T15:07:17.874Z,59.90
2022-10-26T15:09:48.648Z,61.70
2022-10-26T15:12:34.431Z,61.37
2022-10-26T15:15:23.602Z,60.59
2022-10-26T15:17:55.619Z,60.73
2022-10-26T15:20:27.283Z,60.96
2022-10-26T15:23:00.432Z,61.32
2022-10-26T15:25:31.918Z,62.13
2022-10-26T15:28:11.503Z,62.12
2022-10-26T15:30:40.925Z,61.94
2022-10-26T15:33:22.468Z,62.30
2022-10-26T15:35:51.975Z,63.43
2022-10-26T15:38:23.103Z,63.21
2022-10-26T15:40:52.545Z,63.62
2022-10-26T15:43:22.330Z,64.83
2022-10-26T15:45:52.356Z,65.06
2022-10-26T15:48:27.283Z,65.38
2022-10-26T15:50:57.078Z,66.37
2022-10-26T15:53:29.148Z,66.17
2022-10-26T15:56:00.194Z,67.20
2022-10-26T15:58:32.540Z,68.03
2022-10-26T16:01:02.124Z,69.09
2022-10-26T16:03:31.827Z,69.89
2022-10-26T16:06:03.125Z,69.93
2022-10-26T16:08:34.162Z,69.97
2022-10-26T16:11:03.576Z,71.10
2022-10-26T16:13:33.270Z,70.89
2022-10-26T16:16:03.626Z,70.81
2022-10-26T16:18:33.147Z,71.55
2022-10-26T16:21:02.616Z,71.25
2022-10-26T16:23:33.896Z,71.31
2022-10-26T16:26:05.241Z,71.74
2022-10-26T16:28:35.291Z,71.71
2022-10-26T16:31:06.860Z,71.52
2022-10-26T16:33:36.679Z,71.36
2022-10-26T16:36:07.447Z,70.98
2022-10-26T16:38:38.726Z,70.99
2022-10-26T16:41:09.764Z,71.13
2022-10-26T16:43:40.779Z,71.51
2022-10-26T16:46:12.300Z,70.80
2022-10-26T16:48:43.785Z,71.18
2022-10-26T16:51:15.536Z,70.66
2022-10-26T16:53:49.093Z,71.00
2022-10-26T16:56:20.475Z,70.89
2022-10-26T16:58:50.315Z,70.48
2022-10-26T17:01:22.403Z,70.63
2022-10-26T17:03:53.375Z,70.89
2022-10-26T17:06:23.077Z,70.55
2022-10-26T17:08:53.963Z,71.18
2022-10-26T17:11:23.629Z,70.79
2022-10-26T17:13:56.329Z,71.95
2022-10-26T17:16:27.093Z,73.23
2022-10-26T17:18:56.858Z,72.32
2022-10-26T17:21:32.522Z,72.64
2022-10-26T17:24:04.467Z,72.77
2022-10-26T17:26:34.273Z,73.99
2022-10-26T17:29:04.263Z,73.98
2022-10-26T17:31:33.858Z,74.62
2022-10-26T17:34:03.455Z,74.94
2022-10-26T17:36:32.944Z,74.55
2022-10-26T17:39:04.418Z,74.95
2022-10-26T17:41:33.942Z,75.91
2022-10-26T17:44:03.668Z,75.51
2022-10-26T17:46:34.099Z,76.57
2022-10-26T17:49:04.122Z,76.04
2022-10-26T17:51:33.513Z,75.88
2022-10-26T17:54:04.854Z,76.59
2022-10-26T17:56:35.745Z,76.98
2022-10-26T17:59:10.546Z,77.03
2022-10-26T18:01:40.253Z,77.53
2022-10-26T18:04:09.960Z,77.72
2022-10-26T18:06:39.524Z,78.14
2022-10-26T18:09:10.543Z,77.62
2022-10-26T18:11:40.204Z,77.87
2022-10-26T18:14:09.936Z,77.30
2022-10-26T18:16:39.519Z,78.51
2022-10-26T18:19:09.252Z,78.81
2022-10-26T18:21:39.273Z,78.91
2022-10-26T18:24:11.530Z,78.71
2022-10-26T18:26:41.122Z,79.10
2022-10-26T18:29:14.052Z,80.17
2022-10-26T18:31:45.154Z,80.04
2022-10-26T18:34:15.027Z,80.69
2022-10-26T18:36:44.500Z,79.69
2022-10-26T18:39:15.585Z,79.99
2022-10-26T18:41:46.144Z,80.16
2022-10-26T18:44:19.095Z,79.80
2022-10-26T18:46:51.974Z,80.42
2022-10-26T18:49:21.758Z,80.45
2022-10-26T18:51:51.304Z,81.93
2022-10-26T18:54:22.446Z,80.05
2022-10-26T18:56:51.989Z,81.87
2022-10-26T18:59:21.589Z,83.63
2022-10-26T19:01:51.833Z,82.96
2022-10-26T19:04:21.928Z,81.16
2022-10-26T19:06:51.303Z,83.15
2022-10-26T19:09:22.224Z,82.35
2022-10-26T19:11:52.214Z,82.83
2022-10-26T19:14:24.731Z,82.23
2022-10-26T19:16:54.602Z,82.83
2022-10-26T19:19:25.416Z,83.46
2022-10-26T19:21:54.989Z,81.82
2022-10-26T19:24:26.425Z,81.23
2022-10-26T19:26:56.689Z,82.89
2022-10-26T19:29:26.432Z,82.65
2022-10-26T19:31:56.360Z,82.27
2022-10-26T19:34:26.892Z,81.80
2022-10-26T19:36:56.328Z,80.96
2022-10-26T19:39:29.392Z,80.47
2022-10-26T19:41:58.849Z,82.15
2022-10-26T19:44:28.752Z,82.49
2022-10-26T19:46:58.299Z,82.50
2022-10-26T19:49:27.957Z,81.53
2022-10-26T19:51:58.074Z,82.01
2022-10-26T19:54:29.113Z,82.15
2022-10-26T19:56:58.530Z,82.21
2022-10-26T19:59:28.251Z,82.72
2022-10-26T20:01:58.136Z,80.89
2022-10-26T20:04:28.164Z,81.15
2022-10-26T20:06:57.583Z,80.88
2022-10-26T20:09:29.619Z,80.56
2022-10-26T20:11:59.133Z,81.00
2022-10-26T20:14:28.860Z,80.47
2022-10-26T20:16:58.195Z,80.61
2022-10-26T20:19:27.899Z,80.45
2022-10-26T20:21:57.227Z,80.19
2022-10-26T20:24:28.308Z,80.37
2022-10-26T20:26:58.051Z,80.58
2022-10-26T20:29:27.707Z,80.86
2022-10-26T20:31:58.446Z,80.00
2022-10-26T20:37:03.052Z,79.98
2022-10-26T20:39:34.696Z,79.62
2022-10-26T20:42:04.748Z,80.24
2022-10-26T20:44:40.656Z,81.16
2022-10-26T20:47:10.720Z,80.95
2022-10-26T20:49:40.944Z,81.85
2022-10-26T20:52:21.037Z,81.72
2022-10-26T20:54:57.380Z,81.08
2022-10-26T20:57:31.688Z,80.30
2022-10-26T21:00:07.540Z,80.17
2022-10-26T21:02:36.858Z,80.42
2022-10-26T21:05:07.372Z,80.33
2022-10-26T21:07:36.738Z,80.58
2022-10-26T21:10:08.481Z,81.08
2022-10-26T21:12:38.450Z,80.84
2022-10-26T21:15:09.210Z,81.01
2022-10-26T21:17:38.588Z,81.26
2022-10-26T21:20:09.056Z,81.08
2022-10-26T21:22:38.402Z,80.44
2022-10-26T21:25:10.493Z,81.24
2022-10-26T21:27:40.302Z,81.00
2022-10-26T21:30:11.458Z,82.79
2022-10-26T21:32:41.015Z,83.10
2022-10-26T21:35:10.853Z,81.87
2022-10-26T21:37:40.304Z,83.50
2022-10-26T21:40:12.825Z,81.87
2022-10-26T21:42:42.443Z,80.62
2022-10-26T21:45:12.149Z,81.30
2022-10-26T21:47:41.594Z,82.54
2022-10-26T21:50:11.272Z,81.14
2022-10-26T21:52:40.821Z,81.40
2022-10-26T21:55:12.608Z,82.49
2022-10-26T21:57:42.234Z,82.66
2022-10-26T22:00:12.667Z,81.81
2022-10-26T22:02:45.171Z,81.97
2022-10-26T22:05:14.812Z,81.90
2022-10-26T22:07:47.557Z,81.94
2022-10-26T22:10:19.443Z,82.55
2022-10-26T22:12:49.007Z,82.97
2022-10-26T22:15:18.834Z,82.84
2022-10-26T22:17:48.272Z,82.36
2022-10-26T22:20:18.258Z,82.30
2022-10-26T22:22:47.722Z,83.03
2022-10-26T22:25:19.053Z,82.33
2022-10-26T22:27:49.814Z,81.68
2022-10-26T22:30:19.639Z,82.06
2022-10-26T22:32:49.423Z,81.45
2022-10-26T22:35:34.805Z,81.23
2022-10-26T22:38:04.423Z,81.11
2022-10-26T22:40:35.521Z,80.63
2022-10-26T22:43:05.093Z,81.78
2022-10-26T22:45:34.877Z,81.90
2022-10-26T22:48:04.299Z,81.31
2022-10-26T22:50:33.955Z,81.11
2022-10-26T22:53:03.447Z,81.80
2022-10-26T22:55:34.542Z,81.24
2022-10-26T22:58:03.848Z,81.26
2022-10-26T23:00:33.438Z,83.15
2022-10-26T23:03:02.864Z,82.08
2022-10-26T23:05:32.550Z,82.28
2022-10-26T23:08:01.971Z,81.62
2022-10-26T23:10:31.557Z,81.82
2022-10-26T23:15:32.956Z,81.54
2022-10-26T23:18:02.373Z,81.06
2022-10-26T23:20:34.455Z,81.83
2022-10-26T23:23:04.323Z,81.21
2022-10-26T23:25:34.440Z,81.59
2022-10-26T23:28:05.370Z,81.23
2022-10-26T23:30:34.976Z,81.07
2022-10-26T23:33:04.434Z,81.69
2022-10-26T23:35:34.090Z,81.52
2022-10-26T23:38:03.708Z,81.35
2022-10-26T23:40:33.393Z,81.28
2022-10-26T23:43:04.259Z,81.10
2022-10-26T23:45:33.850Z,81.08
2022-10-26T23:48:03.311Z,81.02
2022-10-26T23:50:32.960Z,81.21
2022-10-26T23:53:02.383Z,80.80
2022-10-26T23:55:32.085Z,80.88
2022-10-26T23:58:01.572Z,80.59
